createdAt,value
2019-03-05T00:04:01.469Z,6.9
2019-03-05T00:14:04.899Z,7
2019-03-05T00:24:08.356Z,7
2019-03-05T00:34:11.804Z,6.9
2019-03-05T00:44:15.212Z,7.1
2019-03-05T00:54:18.646Z,6.8
2019-03-05T01:04:22.088Z,6.4
2019-03-05T01:14:25.532Z,6.6
2019-03-05T01:24:28.982Z,6.6
2019-03-05T01:34:32.377Z,6.7
2019-03-05T01:44:35.813Z,6.5
2019-03-05T01:54:39.262Z,7.1
2019-03-05T02:04:42.677Z,7.4
2019-03-05T02:14:46.118Z,7.3
2019-03-05T02:24:49.561Z,6.8
2019-03-05T02:34:52.998Z,6.6
2019-03-05T02:44:56.562Z,5.8
2019-03-05T02:55:00.047Z,5.7
2019-03-05T03:05:03.477Z,5.8
2019-03-05T03:15:07.030Z,6.1
2019-03-05T03:25:10.479Z,6.5
2019-03-05T03:35:13.956Z,6.7
2019-03-05T03:45:17.435Z,6.8
2019-03-05T03:55:20.862Z,6.7
2019-03-05T04:05:24.336Z,6.4
2019-03-05T04:15:27.802Z,6.6
2019-03-05T04:25:31.267Z,6.2
2019-03-05T04:35:34.817Z,6.2
2019-03-05T04:45:38.252Z,6.6
2019-03-05T04:55:41.684Z,6.7
2019-03-05T05:05:45.127Z,6.5
2019-03-05T05:15:48.564Z,6.3
2019-03-05T05:25:52.008Z,6
2019-03-05T05:35:55.444Z,6.4
2019-03-05T05:45:58.910Z,6.6
2019-03-05T05:56:02.370Z,6.6
2019-03-05T06:06:05.891Z,6.5
2019-03-05T06:16:09.347Z,6.7
2019-03-05T06:26:12.774Z,6.7
2019-03-05T06:36:16.211Z,6.6
2019-03-05T06:46:19.647Z,6.7
2019-03-05T06:56:23.148Z,6.7
2019-03-05T07:06:26.606Z,7.5
2019-03-05T07:16:30.058Z,6.7
2019-03-05T07:26:34.530Z,6.7
2019-03-05T07:36:37.960Z,8
2019-03-05T07:46:41.405Z,9.6
2019-03-05T07:56:44.813Z,10.3
2019-03-05T08:06:48.247Z,11.3
2019-03-05T08:16:51.695Z,12
2019-03-05T08:26:55.103Z,11.9
2019-03-05T08:36:58.539Z,12.8
2019-03-05T08:47:01.993Z,13.1
2019-03-05T08:57:05.436Z,12.9
2019-03-05T09:07:08.869Z,13.4
2019-03-05T09:17:12.314Z,12.3
2019-03-05T09:27:15.806Z,11.6
2019-03-05T09:37:19.240Z,11.4
2019-03-05T09:47:22.689Z,11.2
2019-03-05T09:57:27.371Z,10.7
2019-03-05T10:07:30.877Z,10.1
2019-03-05T10:17:37.768Z,10
2019-03-05T10:27:41.764Z,9.9
2019-03-05T10:37:45.205Z,9.7
2019-03-05T10:47:48.613Z,9.8
2019-03-05T10:57:52.023Z,10.3
2019-03-05T11:07:55.463Z,10.9
2019-03-05T11:17:58.911Z,11
2019-03-05T11:28:02.366Z,10.6
2019-03-05T11:38:05.756Z,10.6
2019-03-05T11:48:09.215Z,10.6
2019-03-05T11:58:12.676Z,10.4
2019-03-05T12:08:16.138Z,10.4
2019-03-05T12:18:19.558Z,10.4
2019-03-05T12:28:23.019Z,10.7
2019-03-05T12:38:26.494Z,11.9
2019-03-05T12:48:39.441Z,12.1
2019-03-05T12:58:43.956Z,11.5
2019-03-05T13:08:47.408Z,11.3
2019-03-05T13:18:50.828Z,11.6
2019-03-05T13:28:54.289Z,11.6
2019-03-05T13:38:57.726Z,11.5
2019-03-05T13:49:01.169Z,11.4
2019-03-05T13:59:04.627Z,11.7
2019-03-05T14:09:08.965Z,11.5
2019-03-05T14:19:12.611Z,11.5
2019-03-05T14:29:16.090Z,11.7
2019-03-05T14:39:19.589Z,11.5
2019-03-05T14:49:23.160Z,11.6
2019-03-05T14:59:26.680Z,11.6
2019-03-05T15:09:30.222Z,11.7
2019-03-05T15:19:34.693Z,11.8
2019-03-05T15:29:38.548Z,11.9
2019-03-05T15:39:42.155Z,11.7
2019-03-05T15:49:45.836Z,11.4
2019-03-05T15:59:49.373Z,11.4
2019-03-05T16:09:52.862Z,11.2
2019-03-05T16:19:56.331Z,11.1
2019-03-05T16:29:59.802Z,11.1
2019-03-05T16:40:05.096Z,10.9
2019-03-05T16:50:13.604Z,10.7
2019-03-05T17:00:17.020Z,10.7
2019-03-05T17:10:20.518Z,10.6
2019-03-05T17:20:23.979Z,10.6
2019-03-05T17:30:27.387Z,10.5
2019-03-05T17:40:30.838Z,10.4
2019-03-05T17:50:34.269Z,10.4
2019-03-05T18:00:37.696Z,10.5
2019-03-05T18:10:41.122Z,10.6
2019-03-05T18:20:45.559Z,10.5
2019-03-05T18:30:49.007Z,10.5
2019-03-05T18:40:52.489Z,10.5
2019-03-05T18:50:55.931Z,10.5
2019-03-05T19:00:59.376Z,10.4
2019-03-05T19:11:02.834Z,10.5
2019-03-05T19:21:07.198Z,10.4
2019-03-05T19:31:10.658Z,10.4
2019-03-05T19:41:14.079Z,10.4
2019-03-05T19:51:17.558Z,10.3
2019-03-05T20:01:21.025Z,10.2
2019-03-05T20:11:24.471Z,10.1
2019-03-05T20:21:27.932Z,10.1
2019-03-05T20:31:31.402Z,10
2019-03-05T20:41:35.094Z,9.8
2019-03-05T20:51:38.570Z,9.8
2019-03-05T21:01:42.063Z,9.7
2019-03-05T21:11:45.491Z,9.6
2019-03-05T21:21:50.038Z,9.5
2019-03-05T21:31:53.508Z,9.4
2019-03-05T21:41:56.985Z,9.4
2019-03-05T21:52:00.461Z,9.3
2019-03-05T22:02:03.927Z,9.2
2019-03-05T22:12:07.381Z,9.1
2019-03-05T22:22:10.861Z,8.9
2019-03-05T22:32:14.322Z,8.8
2019-03-05T22:42:17.814Z,8.8
2019-03-05T22:52:21.279Z,8.7
2019-03-05T23:02:24.724Z,8.6
2019-03-05T23:12:28.170Z,8.4
2019-03-05T23:22:31.627Z,8.3
2019-03-05T23:32:35.898Z,8.1
2019-03-05T23:42:39.353Z,8.2
2019-03-05T23:52:42.820Z,8.2
